Time;durP1;ratioP1;P1;durP2;ratioP2;P2;SDS_P1;SDS_P2;PMS_P1;PMS_P2;Temp;Humidity;BMP_temperature;BMP_pressure;BME280_temperature;BME280_humidity;BME280_pressure;Samples;Min_cycle;Max_cycle;Signal;HPM_P1;HPM_P2
2022/06/09 00:01:55;;;;;;;732.70;682.47;;;13.30;99.90;;;;;;5034463;28;20452;-79
2022/06/09 00:04:27;;;;;;;737.80;687.40;;;13.30;99.90;;;;;;5034897;28;20568;-80
2022/06/09 00:07:00;;;;;;;727.47;678.20;;;13.30;99.90;;;;;;5034583;28;20459;-79
2022/06/09 00:09:30;;;;;;;732.93;683.80;;;13.30;99.90;;;;;;5033761;28;20467;-79
2022/06/09 00:11:58;;;;;;;731.97;682.13;;;13.20;99.90;;;;;;5033890;28;20487;-79
2022/06/09 00:14:25;;;;;;;738.07;686.27;;;13.10;99.90;;;;;;5035261;28;20472;-79
2022/06/09 00:16:51;;;;;;;721.77;670.57;;;13.10;99.90;;;;;;5034311;28;20453;-79
2022/06/09 00:19:18;;;;;;;726.93;675.07;;;13.00;99.90;;;;;;5033665;28;20486;-79
2022/06/09 00:21:45;;;;;;;732.40;678.40;;;12.90;99.90;;;;;;5033153;28;20459;-80
2022/06/09 00:24:14;;;;;;;742.10;688.40;;;12.80;99.90;;;;;;5033984;28;20471;-79
2022/06/09 00:26:40;;;;;;;732.03;678.23;;;12.90;99.90;;;;;;5033860;28;20449;-79
2022/06/09 00:29:07;;;;;;;731.57;678.40;;;12.90;99.90;;;;;;5033258;28;20457;-79
2022/06/09 00:31:34;;;;;;;746.23;691.23;;;12.80;99.90;;;;;;5033334;28;20948;-79
2022/06/09 00:34:01;;;;;;;737.93;683.90;;;12.80;99.90;;;;;;5033972;28;20476;-80
2022/06/09 00:36:29;;;;;;;740.27;686.30;;;12.80;99.90;;;;;;5034322;28;20480;-80
2022/06/09 00:38:57;;;;;;;735.17;680.20;;;12.70;99.90;;;;;;5033926;28;20452;-83
2022/06/09 00:41:25;;;;;;;731.60;677.87;;;12.70;99.90;;;;;;5034782;28;20821;-80
2022/06/09 00:43:53;;;;;;;732.13;677.30;;;12.80;99.90;;;;;;5033435;28;20860;-79
2022/06/09 00:46:24;;;;;;;726.23;672.50;;;12.80;99.90;;;;;;5034695;28;20452;-80
2022/06/09 00:48:56;;;;;;;726.77;673.67;;;12.80;99.90;;;;;;5033512;28;20823;-80
2022/06/09 00:51:33;;;;;;;732.87;679.57;;;12.80;99.90;;;;;;5033659;28;20853;-79
2022/06/09 00:54:16;;;;;;;724.97;672.13;;;12.80;99.90;;;;;;5033161;28;20484;-79
2022/06/09 00:56:50;;;;;;;730.33;676.43;;;12.80;99.90;;;;;;5033217;28;20479;-79
2022/06/09 00:59:20;;;;;;;745.80;690.47;;;12.70;99.90;;;;;;5032759;28;20467;-80
2022/06/09 01:01:47;;;;;;;753.20;696.63;;;12.60;99.90;;;;;;5033441;28;20448;-80
2022/06/09 01:04:17;;;;;;;744.67;687.47;;;12.50;99.90;;;;;;5033039;28;20487;-79
2022/06/09 01:06:47;;;;;;;740.37;683.07;;;12.60;99.90;;;;;;5033172;28;20546;-79
2022/06/09 01:09:17;;;;;;;749.10;690.60;;;12.60;99.90;;;;;;5032983;28;20448;-79
2022/06/09 01:11:46;;;;;;;771.60;711.30;;;12.50;99.90;;;;;;5033442;28;20456;-80
2022/06/09 01:14:16;;;;;;;748.40;688.67;;;12.50;99.90;;;;;;5032885;28;21077;-80
2022/06/09 01:16:56;;;;;;;746.97;686.80;;;12.60;99.90;;;;;;5033096;28;20487;-80
2022/06/09 01:19:46;;;;;;;756.27;695.90;;;12.60;99.90;;;;;;5032762;28;20448;-79
2022/06/09 01:22:33;;;;;;;778.23;716.10;;;12.50;99.90;;;;;;5033546;28;20455;-79
2022/06/09 01:25:35;;;;;;;762.30;700.73;;;12.50;99.90;;;;;;5025949;28;20468;-80
2022/06/09 01:28:25;;;;;;;772.47;708.90;;;12.50;99.90;;;;;;5033668;28;20447;-80
2022/06/09 01:30:57;;;;;;;780.20;716.37;;;12.40;99.90;;;;;;5033772;28;20955;-79
2022/06/09 01:33:31;;;;;;;781.80;716.47;;;12.40;99.90;;;;;;5032959;28;20535;-79
2022/06/09 01:36:06;;;;;;;787.30;721.47;;;12.50;99.90;;;;;;5032601;28;20482;-79
2022/06/09 01:38:45;;;;;;;811.40;745.97;;;12.40;99.90;;;;;;5031496;28;20986;-82
2022/06/09 01:41:12;;;;;;;788.30;722.10;;;12.40;99.90;;;;;;5032816;28;20502;-79
2022/06/09 01:43:39;;;;;;;791.60;725.33;;;12.30;99.90;;;;;;5031795;28;20472;-80
2022/06/09 01:46:11;;;;;;;800.33;733.03;;;12.30;99.90;;;;;;5030790;28;20456;-79
2022/06/09 01:48:38;;;;;;;806.33;738.27;;;12.20;99.90;;;;;;5031684;28;20967;-80
2022/06/09 01:51:11;;;;;;;818.67;750.60;;;12.20;99.90;;;;;;5032393;28;21031;-79
2022/06/09 01:53:42;;;;;;;808.73;740.17;;;12.10;99.90;;;;;;5033262;28;20475;-82
2022/06/09 01:56:15;;;;;;;785.93;715.93;;;12.10;99.90;;;;;;5032249;28;20480;-79
2022/06/09 01:58:46;;;;;;;801.37;729.87;;;12.10;99.90;;;;;;5031345;28;20452;-79
2022/06/09 02:01:18;;;;;;;813.73;742.07;;;12.10;99.90;;;;;;5032349;28;20462;-79
2022/06/09 02:03:49;;;;;;;851.30;777.30;;;12.20;99.90;;;;;;5031775;28;20468;-79
2022/06/09 02:06:17;;;;;;;797.13;723.07;;;12.20;99.90;;;;;;5033127;28;20487;-80
2022/06/09 02:08:44;;;;;;;808.10;733.00;;;12.20;99.90;;;;;;5035632;28;20459;-79
2022/06/09 02:11:13;;;;;;;821.70;746.23;;;12.20;99.90;;;;;;5036128;28;20463;-79
2022/06/09 02:13:44;;;;;;;805.13;728.97;;;12.30;99.90;;;;;;5035199;28;20479;-80
2022/06/09 02:16:16;;;;;;;791.33;717.27;;;12.40;99.90;;;;;;5036022;28;20858;-82
2022/06/09 02:18:47;;;;;;;821.47;747.33;;;12.40;99.90;;;;;;5034850;28;20520;-79
2022/06/09 02:21:19;;;;;;;828.27;754.80;;;12.50;99.90;;;;;;5035150;28;20456;-82
2022/06/09 02:23:47;;;;;;;800.40;727.80;;;12.50;99.90;;;;;;5035510;28;20854;-79
2022/06/09 02:26:14;;;;;;;823.80;751.47;;;12.40;99.90;;;;;;5035481;28;20831;-82
2022/06/09 02:28:41;;;;;;;837.97;766.07;;;12.50;99.90;;;;;;5034669;28;20487;-79
2022/06/09 02:31:08;;;;;;;816.03;744.87;;;12.60;99.90;;;;;;5035127;28;20476;-80
2022/06/09 02:33:36;;;;;;;793.00;722.50;;;12.60;99.90;;;;;;5035280;28;20483;-79
2022/06/09 02:36:03;;;;;;;786.13;716.37;;;12.60;99.90;;;;;;5034947;28;20478;-79
2022/06/09 02:38:30;;;;;;;809.57;739.50;;;12.80;99.90;;;;;;5035601;28;20448;-79
2022/06/09 02:40:57;;;;;;;791.87;723.10;;;12.70;99.90;;;;;;5035306;28;20843;-79
2022/06/09 02:43:25;;;;;;;792.27;723.83;;;12.80;99.90;;;;;;5034386;28;21007;-79
2022/06/09 02:45:52;;;;;;;788.00;719.47;;;12.80;99.90;;;;;;5034820;28;20452;-79
2022/06/09 02:48:19;;;;;;;793.40;725.10;;;12.80;99.90;;;;;;5034633;28;20452;-80
2022/06/09 02:50:48;;;;;;;803.80;735.57;;;12.90;99.90;;;;;;5035074;28;20452;-79
2022/06/09 02:53:15;;;;;;;816.57;748.90;;;12.80;99.90;;;;;;5034291;28;20480;-81
2022/06/09 02:55:42;;;;;;;800.03;732.83;;;12.90;99.90;;;;;;5034444;28;20878;-79
2022/06/09 02:58:09;;;;;;;796.10;728.20;;;12.90;99.90;;;;;;5033640;28;20456;-80
2022/06/09 03:00:36;;;;;;;790.23;723.70;;;12.90;99.90;;;;;;5034546;28;20456;-79
2022/06/09 03:03:05;;;;;;;801.63;734.80;;;12.90;99.90;;;;;;5034235;28;20459;-82
2022/06/09 03:05:33;;;;;;;798.30;730.30;;;12.90;99.90;;;;;;5034416;28;20448;-79
2022/06/09 03:08:01;;;;;;;804.37;736.17;;;12.80;99.90;;;;;;5033914;28;20448;-79
2022/06/09 03:10:28;;;;;;;802.37;737.37;;;12.90;99.90;;;;;;5033050;28;20467;-80
2022/06/09 03:12:55;;;;;;;783.40;718.77;;;12.90;99.90;;;;;;5034586;28;20479;-81
2022/06/09 03:15:24;;;;;;;792.77;727.67;;;12.90;99.90;;;;;;5034292;28;20452;-79
2022/06/09 03:17:51;;;;;;;795.10;730.70;;;12.90;99.90;;;;;;5033779;28;20456;-80
2022/06/09 03:20:21;;;;;;;802.80;739.30;;;12.90;99.90;;;;;;5031972;28;20471;-81
2022/06/09 03:22:48;;;;;;;791.57;728.30;;;12.90;99.90;;;;;;5023408;28;20951;-80
2022/06/09 03:25:16;;;;;;;796.77;732.47;;;12.80;99.90;;;;;;5033932;28;20448;-80
2022/06/09 03:27:44;;;;;;;802.10;737.50;;;12.80;99.90;;;;;;5034490;28;20448;-79
2022/06/09 03:30:11;;;;;;;792.60;727.00;;;12.80;99.90;;;;;;5030699;28;20836;-80
2022/06/09 03:32:38;;;;;;;800.03;732.63;;;12.70;99.90;;;;;;5034538;28;20465;-78
2022/06/09 03:35:06;;;;;;;785.50;718.20;;;12.70;99.90;;;;;;5034636;28;20518;-80
2022/06/09 03:37:33;;;;;;;779.67;713.00;;;12.80;99.90;;;;;;5031970;28;21039;-81
2022/06/09 03:40:00;;;;;;;769.80;703.70;;;12.90;99.90;;;;;;5039093;28;20464;-79
2022/06/09 03:42:28;;;;;;;778.63;712.47;;;13.00;99.90;;;;;;5035342;28;20460;-79
2022/06/09 03:44:55;;;;;;;770.27;704.70;;;13.00;99.90;;;;;;5032199;28;20476;-82
2022/06/09 03:47:22;;;;;;;770.10;707.40;;;13.00;99.90;;;;;;5034374;28;20441;-80
2022/06/09 03:49:49;;;;;;;775.77;712.57;;;13.00;99.90;;;;;;5035538;28;20977;-78
2022/06/09 03:52:16;;;;;;;774.07;711.23;;;13.10;99.90;;;;;;5031680;28;20466;-78
2022/06/09 03:54:43;;;;;;;772.90;710.40;;;13.10;99.90;;;;;;5032498;28;20989;-78
2022/06/09 03:57:10;;;;;;;772.10;710.40;;;13.10;99.90;;;;;;5033696;28;20476;-79
2022/06/09 03:59:38;;;;;;;767.80;708.07;;;13.20;99.90;;;;;;5031179;28;20543;-78
2022/06/09 04:02:05;;;;;;;762.00;703.60;;;13.30;99.90;;;;;;5031851;28;20945;-79
2022/06/09 04:04:32;;;;;;;755.17;696.50;;;13.40;99.90;;;;;;5035588;28;20464;-82
2022/06/09 04:06:59;;;;;;;746.83;693.70;;;13.50;99.90;;;;;;5017071;28;20452;-79
2022/06/09 04:09:26;;;;;;;746.43;695.10;;;13.50;99.90;;;;;;5020283;28;20460;-79
2022/06/09 04:11:52;;;;;;;732.40;684.50;;;13.50;99.90;;;;;;5033838;28;20957;-79
2022/06/09 04:14:19;;;;;;;745.47;698.03;;;13.60;99.90;;;;;;5032536;28;20469;-85
2022/06/09 04:16:47;;;;;;;742.53;695.23;;;13.50;99.90;;;;;;5030293;28;20764;-79
2022/06/09 04:19:16;;;;;;;737.03;690.93;;;13.60;99.90;;;;;;5032234;28;20448;-79
2022/06/09 04:21:44;;;;;;;725.07;680.67;;;13.60;99.90;;;;;;5036315;28;20449;-79
2022/06/09 04:24:11;;;;;;;703.20;661.30;;;13.70;99.90;;;;;;5031902;28;20476;-82
2022/06/09 04:26:40;;;;;;;695.13;654.00;;;13.70;99.90;;;;;;5034734;28;20452;-81
2022/06/09 04:29:08;;;;;;;650.10;614.27;;;13.70;99.90;;;;;;5034829;28;20453;-81
2022/06/09 04:31:36;;;;;;;669.00;630.57;;;13.80;99.90;;;;;;5033368;28;20456;-82
2022/06/09 04:34:04;;;;;;;659.40;624.30;;;13.90;99.90;;;;;;5035686;28;20468;-80
2022/06/09 04:36:31;;;;;;;650.97;617.30;;;13.90;99.90;;;;;;5035739;28;21011;-81
2022/06/09 04:38:58;;;;;;;596.03;566.33;;;13.90;99.90;;;;;;5031897;28;20535;-79
2022/06/09 04:41:25;;;;;;;620.20;589.43;;;13.90;99.90;;;;;;5035173;28;20829;-80
2022/06/09 04:43:52;;;;;;;617.63;587.20;;;13.90;99.90;;;;;;5035743;28;20469;-79
2022/06/09 04:46:21;;;;;;;617.80;587.90;;;13.90;99.90;;;;;;5034407;28;20444;-79
2022/06/09 04:48:50;;;;;;;633.33;600.00;;;13.90;99.90;;;;;;5033137;28;20520;-79
2022/06/09 04:51:20;;;;;;;626.10;595.17;;;13.90;99.90;;;;;;5035425;28;20452;-79
2022/06/09 04:53:48;;;;;;;634.97;602.80;;;13.90;99.90;;;;;;5034487;28;20480;-79
2022/06/09 04:56:16;;;;;;;648.97;614.97;;;14.00;99.90;;;;;;5035274;28;20480;-79
2022/06/09 04:58:43;;;;;;;622.20;590.77;;;14.00;99.90;;;;;;5035264;28;20448;-79
2022/06/09 05:01:17;;;;;;;618.80;588.10;;;14.10;99.90;;;;;;5035476;28;20457;-81
2022/06/09 05:03:44;;;;;;;596.20;566.40;;;14.20;99.90;;;;;;5034593;28;20472;-79
2022/06/09 05:06:11;;;;;;;596.37;567.10;;;14.30;99.90;;;;;;5034215;28;20461;-79
2022/06/09 05:08:40;;;;;;;537.33;512.90;;;14.40;99.90;;;;;;5033835;28;20451;-79
2022/06/09 05:11:07;;;;;;;537.10;512.63;;;14.50;99.90;;;;;;5035062;28;20498;-79
2022/06/09 05:13:34;;;;;;;481.90;461.80;;;14.40;99.90;;;;;;5033476;28;20468;-79
2022/06/09 05:16:01;;;;;;;464.00;444.10;;;14.40;99.90;;;;;;5032283;28;20452;-82
2022/06/09 05:18:32;;;;;;;482.07;461.03;;;14.50;99.90;;;;;;5033424;28;20452;-81
2022/06/09 05:20:59;;;;;;;510.80;489.17;;;14.50;99.90;;;;;;5034069;28;20951;-79
2022/06/09 05:23:27;;;;;;;540.10;516.90;;;14.50;99.90;;;;;;5032602;28;20468;-79
2022/06/09 05:25:57;;;;;;;519.97;497.30;;;14.60;99.90;;;;;;5032881;28;20461;-79
2022/06/09 05:28:26;;;;;;;494.17;473.17;;;14.70;99.90;;;;;;5032786;28;20450;-79
2022/06/09 05:30:53;;;;;;;498.67;477.83;;;14.80;99.90;;;;;;5033463;28;20460;-78
2022/06/09 05:33:20;;;;;;;467.37;448.37;;;14.90;99.90;;;;;;5035323;28;20481;-83
2022/06/09 05:35:47;;;;;;;420.37;404.37;;;15.10;99.90;;;;;;5034225;28;20458;-79
2022/06/09 05:46:32;;;;;;;269.13;259.23;;;15.50;99.90;;;;;;5038906;28;20438;-80
2022/06/09 05:48:59;;;;;;;170.63;163.93;;;15.40;99.90;;;;;;5037590;28;20459;-82
2022/06/09 05:51:26;;;;;;;115.80;111.10;;;15.40;99.90;;;;;;5036270;28;20450;-80
2022/06/09 05:53:53;;;;;;;91.20;86.80;;;15.30;99.90;;;;;;5037277;28;20486;-81
2022/06/09 05:56:21;;;;;;;118.90;113.70;;;15.30;99.90;;;;;;5035292;28;20480;-82
2022/06/09 05:58:47;;;;;;;84.33;79.27;;;15.50;99.90;;;;;;5034718;28;20461;-79
2022/06/09 06:01:15;;;;;;;91.40;87.20;;;15.40;99.90;;;;;;5039221;28;20459;-80
2022/06/09 06:03:43;;;;;;;53.70;51.00;;;15.40;99.90;;;;;;5039033;28;20481;-77
2022/06/09 06:08:54;;;;;;;80.43;76.07;;;15.20;99.90;;;;;;5036286;28;20499;-79
2022/06/09 06:11:23;;;;;;;75.80;72.60;;;15.20;99.90;;;;;;5035215;28;20454;-79
2022/06/09 06:13:50;;;;;;;67.30;63.77;;;15.10;99.90;;;;;;5033053;28;20980;-78
2022/06/09 06:16:17;;;;;;;89.30;85.07;;;15.10;99.90;;;;;;5028760;28;20452;-79
2022/06/09 06:18:44;;;;;;;79.53;75.50;;;15.20;99.90;;;;;;5036199;28;20449;-79
2022/06/09 06:21:10;;;;;;;72.70;68.80;;;15.30;99.90;;;;;;5038311;28;20449;-81
2022/06/09 06:23:37;;;;;;;51.97;48.70;;;15.40;99.90;;;;;;5038106;28;20557;-79
2022/06/09 06:26:04;;;;;;;34.07;30.93;;;15.50;99.90;;;;;;5037402;28;20458;-80
2022/06/09 06:28:32;;;;;;;44.00;40.50;;;15.50;99.90;;;;;;5037425;28;20656;-79
2022/06/09 06:30:59;;;;;;;44.10;41.63;;;15.70;99.90;;;;;;5037155;28;20461;-79
2022/06/09 06:33:27;;;;;;;45.87;42.60;;;15.60;99.90;;;;;;5036712;28;20483;-81
2022/06/09 06:35:54;;;;;;;39.38;36.35;;;15.70;99.90;;;;;;5039924;28;20536;-79
2022/06/09 06:38:21;;;;;;;36.30;33.77;;;15.70;99.90;;;;;;5039417;28;20236;-79
2022/06/09 06:40:48;;;;;;;27.10;24.47;;;15.80;99.90;;;;;;5038844;28;20462;-79
2022/06/09 06:43:14;;;;;;;31.87;29.33;;;15.90;99.90;;;;;;5035878;28;20479;-79
2022/06/09 06:45:43;;;;;;;22.30;20.30;;;16.10;99.90;;;;;;5037422;28;20463;-83
2022/06/09 06:48:11;;;;;;;22.27;20.30;;;16.00;99.90;;;;;;5036004;28;20749;-80
2022/06/09 06:50:37;;;;;;;15.43;13.83;;;16.20;99.90;;;;;;5037869;28;20466;-81
2022/06/09 06:53:05;;;;;;;17.80;13.53;;;16.20;99.90;;;;;;5033108;28;20561;-79
2022/06/09 06:55:31;;;;;;;13.57;12.30;;;16.30;99.90;;;;;;5036035;28;20880;-79
2022/06/09 06:57:58;;;;;;;17.00;12.33;;;16.30;99.90;;;;;;5035557;28;20880;-83
2022/06/09 07:00:25;;;;;;;14.53;9.83;;;16.30;99.90;;;;;;5034042;28;20457;-79
2022/06/09 07:02:54;;;;;;;21.77;10.80;;;16.30;99.90;;;;;;5037934;28;20458;-80
2022/06/09 07:05:22;;;;;;;19.30;10.00;;;16.40;99.90;;;;;;5039174;28;20475;-82
2022/06/09 07:07:49;;;;;;;16.50;9.90;;;16.50;99.90;;;;;;5038456;28;20466;-78
2022/06/09 07:10:18;;;;;;;13.40;9.50;;;16.60;99.90;;;;;;5037942;28;20550;-78
2022/06/09 07:12:45;;;;;;;20.53;9.90;;;16.80;99.90;;;;;;5038974;28;20456;-79
2022/06/09 07:15:13;;;;;;;16.90;9.50;;;16.80;99.90;;;;;;5038202;28;20457;-79
2022/06/09 07:17:40;;;;;;;11.77;7.23;;;16.70;98.70;;;;;;5037099;28;20537;-79
2022/06/09 07:20:11;;;;;;;15.27;8.30;;;16.60;99.20;;;;;;5037463;28;20457;-83
2022/06/09 07:22:38;;;;;;;22.47;11.00;;;16.60;99.10;;;;;;5037892;28;20516;-80
2022/06/09 07:25:06;;;;;;;17.07;9.03;;;16.60;98.90;;;;;;5038103;28;20576;-79
2022/06/09 07:27:33;;;;;;;13.73;8.27;;;16.50;99.50;;;;;;5037682;28;20459;-79
2022/06/09 07:30:00;;;;;;;12.93;9.70;;;16.70;99.20;;;;;;5037765;28;20485;-82
2022/06/09 07:32:28;;;;;;;17.73;9.60;;;16.80;99.90;;;;;;5037877;28;20458;-79
2022/06/09 07:34:54;;;;;;;21.83;9.90;;;16.80;97.90;;;;;;5037643;28;20481;-82
2022/06/09 07:37:22;;;;;;;16.87;9.40;;;16.90;98.70;;;;;;5037406;28;21166;-79
2022/06/09 07:39:49;;;;;;;13.80;8.17;;;16.90;97.60;;;;;;5037208;28;20453;-80
2022/06/09 07:42:17;;;;;;;19.03;9.63;;;17.10;97.50;;;;;;5037288;28;20452;-79
2022/06/09 07:44:43;;;;;;;15.13;9.17;;;17.20;94.90;;;;;;5037204;28;20480;-85
2022/06/09 07:47:10;;;;;;;24.13;9.60;;;17.40;95.90;;;;;;5038736;28;20464;-79
2022/06/09 07:49:37;;;;;;;17.37;8.63;;;17.50;94.40;;;;;;5036818;28;20955;-80
2022/06/09 07:52:04;;;;;;;21.10;9.43;;;17.50;95.30;;;;;;5036472;28;20939;-79
2022/06/09 07:54:32;;;;;;;18.60;9.43;;;17.40;94.50;;;;;;5067839;22;21130;-83
2022/06/09 07:56:59;;;;;;;14.60;9.67;;;17.30;95.00;;;;;;5056374;28;20477;-83
2022/06/09 07:59:26;;;;;;;14.20;8.10;;;17.40;94.00;;;;;;5054906;28;20458;-83
2022/06/09 08:01:53;;;;;;;18.53;8.77;;;17.40;94.00;;;;;;5055986;28;20459;-84
2022/06/09 08:04:19;;;;;;;11.40;8.13;;;17.40;94.00;;;;;;5058781;28;20484;-84
2022/06/09 08:06:46;;;;;;;17.00;9.47;;;17.00;93.90;;;;;;5074934;28;20452;-83
2022/06/09 08:09:13;;;;;;;14.63;9.30;;;17.30;94.20;;;;;;5074003;28;20457;-83
2022/06/09 08:11:41;;;;;;;19.70;9.40;;;17.50;93.50;;;;;;5083290;28;20437;-83
2022/06/09 08:14:09;;;;;;;13.03;9.40;;;17.60;93.20;;;;;;5075984;28;20500;-84
2022/06/09 08:16:36;;;;;;;14.83;9.17;;;17.80;93.30;;;;;;5076799;28;20452;-84
2022/06/09 08:19:03;;;;;;;25.23;9.93;;;17.90;92.10;;;;;;5075028;28;20909;-84
2022/06/09 08:21:31;;;;;;;18.13;8.93;;;18.30;92.70;;;;;;5076226;28;20453;-84
2022/06/09 08:23:58;;;;;;;10.50;7.73;;;19.10;92.10;;;;;;5075992;28;20572;-83
2022/06/09 08:26:26;;;;;;;15.40;6.90;;;19.80;85.90;;;;;;5075830;28;20451;-84
2022/06/09 08:28:54;;;;;;;40.03;11.37;;;20.70;80.30;;;;;;5075472;28;20460;-84
2022/06/09 08:31:21;;;;;;;21.57;8.53;;;21.30;78.10;;;;;;5076455;28;20456;-84
2022/06/09 08:33:48;;;;;;;15.53;7.03;;;21.50;71.50;;;;;;5076534;28;20480;-84
2022/06/09 08:36:15;;;;;;;13.73;7.30;;;20.80;70.80;;;;;;5076480;28;20850;-84
2022/06/09 08:38:42;;;;;;;22.93;7.23;;;20.50;73.80;;;;;;5075723;28;20478;-84
2022/06/09 08:41:27;;;;;;;18.83;7.40;;;20.20;70.90;;;;;;5075729;28;20448;-84
2022/06/09 08:44:02;;;;;;;20.83;7.77;;;19.80;72.90;;;;;;5075740;28;20454;-84
2022/06/09 08:46:43;;;;;;;10.77;5.93;;;19.90;71.70;;;;;;5076456;28;20459;-84
2022/06/09 08:49:25;;;;;;;8.73;5.40;;;20.30;70.40;;;;;;5075474;28;20448;-84
2022/06/09 08:51:53;;;;;;;11.03;6.03;;;20.50;71.60;;;;;;5074659;28;20458;-83
2022/06/09 08:54:26;;;;;;;10.03;6.87;;;20.30;70.40;;;;;;5076107;28;21012;-84
2022/06/09 08:56:54;;;;;;;14.17;6.30;;;19.70;71.10;;;;;;5076327;28;20497;-84
2022/06/09 08:59:28;;;;;;;14.63;7.17;;;19.50;71.10;;;;;;5075320;28;20450;-83
2022/06/09 09:01:58;;;;;;;15.97;8.20;;;19.20;74.20;;;;;;5076017;28;20485;-84
2022/06/09 09:04:28;;;;;;;11.20;6.13;;;19.50;73.20;;;;;;5076082;28;20470;-84
2022/06/09 09:07:01;;;;;;;12.63;6.93;;;19.70;72.00;;;;;;5075716;28;20449;-84
2022/06/09 09:09:30;;;;;;;10.70;7.50;;;19.80;71.20;;;;;;5075200;28;20455;-83
2022/06/09 09:12:04;;;;;;;9.47;6.63;;;19.60;71.00;;;;;;5075914;28;20850;-84
2022/06/09 09:14:40;;;;;;;13.23;5.57;;;19.80;70.90;;;;;;5075997;28;20498;-84
2022/06/09 09:17:20;;;;;;;7.70;5.77;;;19.90;70.00;;;;;;5075718;28;20462;-84
2022/06/09 09:19:53;;;;;;;8.93;6.33;;;20.10;70.20;;;;;;5075464;28;20456;-83
2022/06/09 09:22:30;;;;;;;8.57;6.00;;;20.70;68.30;;;;;;5076619;28;20448;-83
2022/06/09 09:25:08;;;;;;;15.60;6.47;;;20.60;69.50;;;;;;5076205;28;20470;-83
2022/06/09 09:27:45;;;;;;;12.50;5.80;;;20.70;65.70;;;;;;5077296;28;20486;-84
2022/06/09 09:30:20;;;;;;;15.77;5.53;;;20.80;68.80;;;;;;5076542;28;20453;-84
2022/06/09 09:32:49;;;;;;;12.77;6.57;;;20.70;66.80;;;;;;5073623;28;20458;-84
2022/06/09 09:35:19;;;;;;;14.20;6.10;;;20.90;67.50;;;;;;5074275;28;20476;-84
2022/06/09 09:37:48;;;;;;;9.80;5.57;;;21.70;63.00;;;;;;5075733;28;20474;-84
2022/06/09 09:40:20;;;;;;;11.83;5.00;;;22.20;58.00;;;;;;5074836;28;20482;-84
2022/06/09 09:42:49;;;;;;;14.37;5.97;;;22.30;60.40;;;;;;5076270;28;20452;-82
2022/06/09 09:45:19;;;;;;;8.87;4.80;;;23.00;56.00;;;;;;5076172;28;20496;-84
2022/06/09 09:47:49;;;;;;;6.90;4.17;;;23.60;55.60;;;;;;5074192;28;20454;-84
2022/06/09 09:50:29;;;;;;;9.50;4.97;;;23.80;48.50;;;;;;5075090;28;20450;-84
2022/06/09 09:53:00;;;;;;;8.90;5.70;;;23.50;50.10;;;;;;5074139;28;20481;-84
2022/06/09 09:55:35;;;;;;;10.40;4.00;;;22.90;51.60;;;;;;5074866;28;21010;-83
2022/06/09 09:58:20;;;;;;;7.80;3.83;;;22.50;49.30;;;;;;5075853;28;20491;-84
2022/06/09 10:00:51;;;;;;;7.70;3.93;;;22.30;46.50;;;;;;5076874;28;20456;-84
2022/06/09 10:09:07;;;;;;;8.47;4.47;;;22.30;49.90;;;;;;5075712;28;20433;-84
2022/06/09 10:11:56;;;;;;;7.33;4.37;;;22.90;49.70;;;;;;5077688;28;20464;-83
2022/06/09 10:14:38;;;;;;;8.30;3.80;;;23.80;46.60;;;;;;5078505;28;20469;-84
2022/06/09 10:17:19;;;;;;;9.30;3.30;;;24.20;48.30;;;;;;5080083;28;20454;-84
2022/06/09 10:19:50;;;;;;;7.33;3.80;;;23.70;41.20;;;;;;5077741;28;20954;-83
2022/06/09 10:22:20;;;;;;;9.23;2.97;;;24.30;43.30;;;;;;5080229;28;20446;-84
2022/06/09 10:24:53;;;;;;;9.07;3.93;;;23.10;38.20;;;;;;5078062;28;20466;-84
2022/06/09 10:27:24;;;;;;;11.30;3.93;;;22.50;43.10;;;;;;5077615;28;20450;-83
2022/06/09 10:29:57;;;;;;;8.50;3.80;;;22.90;47.40;;;;;;5079120;28;20455;-83
2022/06/09 10:32:29;;;;;;;9.80;3.97;;;23.40;47.50;;;;;;5080034;28;20446;-83
2022/06/09 10:35:01;;;;;;;9.83;3.50;;;23.90;45.00;;;;;;5079864;28;20466;-83
2022/06/09 10:37:38;;;;;;;6.80;3.03;;;24.20;42.10;;;;;;5081051;28;20435;-84
2022/06/09 10:40:13;;;;;;;10.70;3.17;;;24.00;37.40;;;;;;5080591;28;20453;-84
2022/06/09 10:42:50;;;;;;;5.77;2.97;;;23.60;41.60;;;;;;5079781;28;20461;-83
2022/06/09 10:45:21;;;;;;;7.60;3.20;;;22.30;45.40;;;;;;5080664;28;20469;-84
2022/06/09 10:56:39;;;;;;;10.03;6.00;;;17.40;99.90;;;;;;5081230;28;20445;-83
2022/06/09 10:59:12;;;;;;;11.13;6.40;;;18.20;99.90;;;;;;5080474;28;20484;-84
2022/06/09 11:01:40;;;;;;;18.20;5.50;;;19.00;99.90;;;;;;5079202;28;20460;-84
2022/06/09 11:04:14;;;;;;;7.67;4.70;;;18.70;99.90;;;;;;5077084;28;20498;-84
2022/06/09 11:07:20;;;;;;;15.43;4.80;;;19.40;99.90;;;;;;5076872;28;21015;-83
2022/06/09 11:09:57;;;;;;;9.70;4.10;;;20.70;99.90;;;;;;5074888;28;20469;-82
2022/06/09 11:12:39;;;;;;;9.53;3.80;;;22.10;88.00;;;;;;5076387;28;20458;-84
2022/06/09 11:15:21;;;;;;;8.27;3.90;;;22.00;85.50;;;;;;5075804;28;20468;-83
2022/06/09 11:18:05;;;;;;;7.50;3.37;;;21.50;74.40;;;;;;5075895;28;20458;-84
2022/06/09 11:20:47;;;;;;;7.73;3.80;;;21.10;77.60;;;;;;5075604;28;20821;-84
2022/06/09 11:23:22;;;;;;;12.23;3.70;;;20.70;70.70;;;;;;5075845;28;20462;-84
2022/06/09 11:26:00;;;;;;;13.73;4.67;;;20.40;70.50;;;;;;5076423;28;20981;-84
2022/06/09 11:28:40;;;;;;;8.40;3.80;;;20.30;68.50;;;;;;5075285;28;20833;-84
2022/06/09 11:31:28;;;;;;;11.40;4.80;;;20.40;73.90;;;;;;5075662;28;20493;-83
2022/06/09 11:34:09;;;;;;;11.53;5.00;;;20.30;81.10;;;;;;5075335;28;20457;-83
2022/06/09 11:36:43;;;;;;;12.73;4.70;;;20.00;88.60;;;;;;5075826;28;20456;-82
2022/06/09 11:39:27;;;;;;;12.07;5.67;;;19.80;90.90;;;;;;5072995;28;20545;-83
2022/06/09 11:42:01;;;;;;;7.93;4.23;;;19.50;85.60;;;;;;5075366;28;20461;-81
2022/06/09 11:44:29;;;;;;;9.93;5.23;;;19.20;83.80;;;;;;5074675;28;20478;-83
2022/06/09 11:47:00;;;;;;;9.13;4.83;;;19.20;88.50;;;;;;5074785;28;20455;-83
2022/06/09 11:49:34;;;;;;;9.57;4.90;;;19.20;92.70;;;;;;5073898;28;20451;-83
2022/06/09 11:52:05;;;;;;;10.83;6.43;;;19.40;89.40;;;;;;5073315;28;20482;-83
2022/06/09 11:54:41;;;;;;;9.87;5.00;;;19.50;91.40;;;;;;5074572;28;20484;-83
2022/06/09 11:57:26;;;;;;;12.60;5.70;;;19.40;94.00;;;;;;5075368;28;20468;-83
2022/06/09 11:59:56;;;;;;;8.77;5.03;;;19.20;88.50;;;;;;5074570;28;20473;-83
2022/06/09 12:02:52;;;;;;;11.30;4.50;;;19.10;91.30;;;;;;5075293;28;20858;-83
2022/06/09 12:05:25;;;;;;;9.57;4.90;;;19.00;91.00;;;;;;5074348;28;20854;-84
2022/06/09 12:08:17;;;;;;;11.37;4.80;;;19.00;90.90;;;;;;5076113;28;20558;-83
2022/06/09 12:11:03;;;;;;;13.53;4.60;;;18.90;81.40;;;;;;5074678;28;20456;-83
2022/06/09 12:13:38;;;;;;;11.10;4.80;;;19.10;83.10;;;;;;5075277;28;20454;-83
2022/06/09 12:16:20;;;;;;;12.73;4.67;;;19.50;81.90;;;;;;5076051;28;20459;-83
2022/06/09 12:19:00;;;;;;;9.57;4.77;;;19.90;78.20;;;;;;5073570;28;20480;-83
2022/06/09 12:21:31;;;;;;;10.50;4.63;;;20.20;74.20;;;;;;5075040;28;20452;-83
2022/06/09 12:24:31;;;;;;;10.40;5.60;;;21.40;74.10;;;;;;5076243;28;20475;-83
2022/06/09 12:27:37;;;;;;;9.80;4.40;;;22.70;64.30;;;;;;5065972;28;20455;-83
2022/06/09 12:30:26;;;;;;;12.00;4.30;;;23.20;53.30;;;;;;5064105;28;20869;-84
2022/06/09 12:33:15;;;;;;;6.33;2.50;;;23.80;49.20;;;;;;5076225;28;20458;-84
2022/06/09 12:35:49;;;;;;;5.43;2.93;;;24.60;48.70;;;;;;5074563;28;20497;-84
2022/06/09 12:38:22;;;;;;;12.90;3.20;;;25.70;40.40;;;;;;5076267;28;20446;-84
2022/06/09 12:40:54;;;;;;;10.77;3.30;;;24.50;44.20;;;;;;5076378;28;20467;-84
2022/06/09 12:43:32;;;;;;;7.07;2.37;;;23.90;42.70;;;;;;5076864;28;20456;-83
2022/06/09 12:46:15;;;;;;;5.40;1.97;;;22.40;40.10;;;;;;5077153;28;20828;-83
2022/06/09 12:48:42;;;;;;;3.90;1.40;;;21.80;47.00;;;;;;5071005;28;20450;-84
2022/06/09 12:51:19;;;;;;;9.20;2.63;;;21.20;45.50;;;;;;5078130;28;20450;-84
2022/06/09 12:53:55;;;;;;;7.20;2.17;;;20.90;45.40;;;;;;5077524;28;20973;-84
2022/06/09 12:56:29;;;;;;;5.30;1.80;;;20.40;48.20;;;;;;5077007;28;20452;-85
2022/06/09 12:58:56;;;;;;;4.20;1.70;;;19.70;52.90;;;;;;5076184;28;20475;-85
2022/06/09 13:01:25;;;;;;;7.90;2.13;;;19.00;56.10;;;;;;5078092;28;20465;-84
2022/06/09 13:03:57;;;;;;;5.77;2.13;;;18.40;58.20;;;;;;5077047;28;20464;-85
2022/06/09 13:06:27;;;;;;;5.27;1.40;;;18.10;66.40;;;;;;5076637;28;20531;-85
2022/06/09 13:08:58;;;;;;;4.50;1.70;;;17.60;67.90;;;;;;5077681;28;20457;-84